Time;durP1;ratioP1;P1;durP2;ratioP2;P2;SDS_P1;SDS_P2;PMS_P1;PMS_P2;Temp;Humidity;BMP_temperature;BMP_pressure;BME280_temperature;BME280_humidity;BME280_pressure;Samples;Min_cycle;Max_cycle;Signal;HPM_P1;HPM_P2
2022/10/04 00:00:56;;;;;;;1.02;1.02;;;;;;;;;;1712981;83;21061;-64
2022/10/04 00:03:24;;;;;;;1.10;1.00;;;;;;;;;;1713389;82;21090;-63
2022/10/04 00:05:52;;;;;;;0.95;0.95;;;;;;;;;;1700514;83;21128;-63
2022/10/04 00:08:23;;;;;;;0.72;0.72;;;;;;;;;;1711313;82;20998;-63
2022/10/04 00:10:50;;;;;;;0.82;0.82;;;;;;;;;;1705658;82;21037;-63
2022/10/04 00:13:18;;;;;;;0.90;0.90;;;;;;;;;;1674908;83;21037;-64
2022/10/04 00:15:45;;;;;;;1.02;0.88;;;;;;;;;;1716227;82;21041;-65
2022/10/04 00:18:19;;;;;;;1.87;1.40;;;;;;;;;;1694755;83;21113;-64
2022/10/04 00:20:52;;;;;;;2.70;1.20;;;;;;;;;;1709262;82;21048;-65
2022/10/04 00:23:27;;;;;;;1.52;1.20;;;;;;;;;;1708088;83;21072;-65
2022/10/04 00:25:55;;;;;;;1.10;1.00;;;;;;;;;;1710348;82;21041;-65
2022/10/04 00:28:26;;;;;;;0.90;0.90;;;;;;;;;;1712724;82;21086;-65
2022/10/04 00:31:12;;;;;;;1.05;1.00;;;;;;;;;;1713984;82;21124;-65
2022/10/04 00:33:40;;;;;;;2.15;1.05;;;;;;;;;;1711752;83;21113;-64
2022/10/04 00:36:17;;;;;;;1.40;1.30;;;;;;;;;;1710997;82;20997;-63
2022/10/04 00:38:43;;;;;;;1.22;1.10;;;;;;;;;;1710604;82;21552;-64
2022/10/04 00:41:09;;;;;;;1.57;1.20;;;;;;;;;;1672810;82;21548;-63
2022/10/04 00:43:43;;;;;;;1.75;1.22;;;;;;;;;;1718203;82;21112;-64
2022/10/04 00:46:13;;;;;;;1.15;1.02;;;;;;;;;;1716910;82;21100;-64
2022/10/04 00:48:41;;;;;;;3.40;1.07;;;;;;;;;;1718517;83;21064;-64
2022/10/04 00:51:15;;;;;;;1.12;1.02;;;;;;;;;;1710264;82;21549;-64
2022/10/04 00:53:56;;;;;;;1.17;1.10;;;;;;;;;;1716777;82;21012;-63
2022/10/04 00:56:27;;;;;;;2.25;1.10;;;;;;;;;;1712056;82;21045;-64
2022/10/04 00:58:56;;;;;;;1.35;1.25;;;;;;;;;;1710298;82;21045;-64
2022/10/04 01:04:13;;;;;;;1.37;1.12;;;;;;;;;;1713745;79;75442;-73
2022/10/04 01:06:40;;;;;;;1.10;1.07;;;;;;;;;;1706192;84;21555;-73
2022/10/04 01:09:07;;;;;;;1.00;1.00;;;;;;;;;;1703269;83;21069;-73
2022/10/04 01:11:37;;;;;;;1.30;1.12;;;;;;;;;;1700901;84;20963;-73
2022/10/04 01:14:05;;;;;;;1.75;1.12;;;;;;;;;;1706761;84;21029;-73
2022/10/04 01:16:32;;;;;;;1.07;1.00;;;;;;;;;;1700182;82;21041;-73
2022/10/04 01:19:17;;;;;;;1.37;1.10;;;;;;;;;;1699828;84;21069;-73
2022/10/04 01:21:43;;;;;;;1.40;0.90;;;;;;;;;;1703196;84;21112;-74
2022/10/04 01:24:11;;;;;;;1.57;1.30;;;;;;;;;;1687041;84;21590;-73
2022/10/04 01:26:39;;;;;;;1.45;1.00;;;;;;;;;;1704553;83;21519;-72
2022/10/04 01:29:24;;;;;;;0.93;0.93;;;;;;;;;;1704703;84;21073;-73
2022/10/04 01:31:51;;;;;;;1.42;1.20;;;;;;;;;;1704409;84;21618;-72
2022/10/04 01:34:18;;;;;;;0.90;0.90;;;;;;;;;;1703991;84;21086;-75
2022/10/04 01:36:46;;;;;;;1.07;1.05;;;;;;;;;;1700433;83;21576;-75
2022/10/04 01:39:12;;;;;;;1.00;1.00;;;;;;;;;;1703530;84;21008;-75
2022/10/04 01:41:40;;;;;;;1.82;1.00;;;;;;;;;;1704530;84;21575;-72
2022/10/04 01:44:08;;;;;;;1.42;1.10;;;;;;;;;;1704252;84;21469;-71
2022/10/04 01:46:35;;;;;;;1.10;1.00;;;;;;;;;;1707091;83;21029;-71
2022/10/04 01:49:03;;;;;;;1.62;1.10;;;;;;;;;;1713479;84;21060;-72
2022/10/04 01:51:30;;;;;;;1.12;1.02;;;;;;;;;;1708919;84;21072;-71
2022/10/04 01:54:01;;;;;;;1.30;1.10;;;;;;;;;;1707219;84;21535;-71
2022/10/04 01:56:29;;;;;;;1.42;1.10;;;;;;;;;;1705584;83;21079;-71
2022/10/04 01:58:59;;;;;;;1.22;0.98;;;;;;;;;;1701435;84;21090;-72
2022/10/04 02:01:36;;;;;;;0.95;0.95;;;;;;;;;;1706780;84;21017;-72
2022/10/04 02:04:07;;;;;;;0.85;0.82;;;;;;;;;;1709712;82;21196;-72
2022/10/04 02:06:37;;;;;;;2.08;1.20;;;;;;;;;;1720370;82;21005;-72
2022/10/04 02:09:07;;;;;;;1.15;0.90;;;;;;;;;;1693080;85;21496;-73
2022/10/04 02:11:35;;;;;;;0.90;0.90;;;;;;;;;;1672008;84;21047;-73
2022/10/04 02:14:02;;;;;;;1.22;1.10;;;;;;;;;;1699125;83;21056;-72
2022/10/04 02:16:29;;;;;;;1.27;1.15;;;;;;;;;;1704294;83;21075;-73
2022/10/04 02:18:55;;;;;;;1.10;1.00;;;;;;;;;;1688971;84;21091;-72
2022/10/04 02:21:21;;;;;;;1.10;1.10;;;;;;;;;;1675899;84;21539;-72
2022/10/04 02:23:47;;;;;;;1.05;1.05;;;;;;;;;;1693239;85;21092;-72
2022/10/04 02:28:12;;;;;;;0.98;0.95;;;;;;;;;;1793844;78;22870;-62
2022/10/04 02:30:41;;;;;;;1.60;1.30;;;;;;;;;;1778684;80;21033;-63
2022/10/04 02:33:09;;;;;;;1.25;1.15;;;;;;;;;;1782793;80;21013;-63
2022/10/04 02:35:36;;;;;;;1.15;1.12;;;;;;;;;;1778536;80;21465;-63
2022/10/04 02:38:05;;;;;;;1.30;1.20;;;;;;;;;;1767845;80;20980;-63
2022/10/04 02:40:33;;;;;;;2.40;1.40;;;;;;;;;;1789225;80;20971;-63
2022/10/04 02:43:01;;;;;;;1.55;1.30;;;;;;;;;;1776134;80;21043;-64
2022/10/04 02:45:41;;;;;;;2.00;1.50;;;;;;;;;;1772474;80;21072;-63
2022/10/04 02:48:28;;;;;;;1.42;1.32;;;;;;;;;;1778128;78;20996;-63
2022/10/04 02:50:56;;;;;;;1.42;1.22;;;;;;;;;;1780439;80;20992;-63
2022/10/04 02:53:27;;;;;;;3.00;1.22;;;;;;;;;;1784106;80;21088;-65
2022/10/04 02:55:53;;;;;;;1.87;1.40;;;;;;;;;;1753620;80;21068;-64
2022/10/04 02:58:21;;;;;;;2.70;1.47;;;;;;;;;;1755903;80;21022;-63
2022/10/04 03:00:51;;;;;;;1.85;1.42;;;;;;;;;;1754772;81;21095;-64
2022/10/04 03:03:27;;;;;;;2.05;1.52;;;;;;;;;;1748636;81;21509;-64
2022/10/04 03:06:13;;;;;;;1.67;1.27;;;;;;;;;;1754772;81;21032;-64
2022/10/04 03:08:43;;;;;;;1.22;1.10;;;;;;;;;;1756555;80;21060;-64
2022/10/04 03:11:10;;;;;;;1.17;1.07;;;;;;;;;;1747206;80;21034;-64
2022/10/04 03:13:37;;;;;;;1.32;1.22;;;;;;;;;;1752391;81;21056;-65
2022/10/04 03:16:03;;;;;;;1.00;1.00;;;;;;;;;;1754380;81;21040;-65
2022/10/04 03:18:30;;;;;;;1.10;1.02;;;;;;;;;;1755199;80;21011;-64
2022/10/04 03:20:57;;;;;;;1.10;1.00;;;;;;;;;;1748814;81;20993;-64
2022/10/04 03:23:23;;;;;;;0.98;0.90;;;;;;;;;;1749221;81;20961;-65
2022/10/04 03:25:54;;;;;;;1.65;1.00;;;;;;;;;;1750789;81;21637;-65
2022/10/04 03:28:21;;;;;;;1.05;0.80;;;;;;;;;;1742745;81;21024;-64
2022/10/04 03:30:48;;;;;;;0.80;0.80;;;;;;;;;;1738849;82;21578;-64
2022/10/04 03:33:16;;;;;;;1.30;1.07;;;;;;;;;;1719599;82;21361;-66
2022/10/04 03:35:43;;;;;;;1.17;0.95;;;;;;;;;;1737048;82;21029;-65
2022/10/04 03:38:10;;;;;;;0.72;0.72;;;;;;;;;;1722747;82;21009;-64
2022/10/04 03:40:36;;;;;;;1.37;0.72;;;;;;;;;;1735153;82;21009;-65
2022/10/04 03:43:03;;;;;;;1.12;1.02;;;;;;;;;;1743133;82;21033;-64
2022/10/04 03:45:29;;;;;;;0.78;0.75;;;;;;;;;;1738457;82;21493;-65
2022/10/04 03:47:57;;;;;;;0.80;0.80;;;;;;;;;;1740085;81;20977;-65
2022/10/04 03:50:25;;;;;;;1.22;1.00;;;;;;;;;;1740087;82;21048;-65
2022/10/04 03:52:55;;;;;;;0.90;0.90;;;;;;;;;;1736204;81;21023;-70
2022/10/04 03:55:23;;;;;;;0.80;0.80;;;;;;;;;;1737647;82;21049;-70
2022/10/04 03:57:50;;;;;;;0.90;0.90;;;;;;;;;;1738348;81;21276;-72
2022/10/04 04:00:17;;;;;;;0.70;0.70;;;;;;;;;;1742791;81;21029;-71
2022/10/04 04:02:57;;;;;;;0.68;0.68;;;;;;;;;;1739372;82;21032;-71
2022/10/04 04:05:25;;;;;;;0.70;0.70;;;;;;;;;;1721006;82;21620;-71
2022/10/04 04:07:59;;;;;;;1.65;0.93;;;;;;;;;;1736616;81;21027;-63
2022/10/04 04:10:27;;;;;;;0.85;0.85;;;;;;;;;;1738642;81;21041;-64
2022/10/04 04:12:58;;;;;;;0.88;0.82;;;;;;;;;;1740633;82;21017;-64
2022/10/04 04:15:26;;;;;;;1.47;1.37;;;;;;;;;;1740009;82;21033;-64
2022/10/04 04:17:52;;;;;;;0.88;0.88;;;;;;;;;;1732549;81;21030;-64
2022/10/04 04:20:26;;;;;;;0.95;0.93;;;;;;;;;;1744843;81;21053;-64
2022/10/04 04:23:00;;;;;;;0.70;0.70;;;;;;;;;;1731877;82;20996;-64
2022/10/04 04:25:26;;;;;;;0.80;0.80;;;;;;;;;;1738579;82;21017;-64
2022/10/04 04:27:54;;;;;;;0.95;0.95;;;;;;;;;;1742355;81;21013;-64
2022/10/04 04:30:21;;;;;;;1.50;0.80;;;;;;;;;;1747719;82;20982;-64
2022/10/04 04:32:49;;;;;;;0.70;0.70;;;;;;;;;;1745026;81;21041;-66
2022/10/04 04:35:22;;;;;;;0.90;0.90;;;;;;;;;;1751157;82;21044;-64
2022/10/04 04:38:07;;;;;;;0.82;0.82;;;;;;;;;;1746755;82;21019;-65
2022/10/04 04:40:33;;;;;;;0.70;0.70;;;;;;;;;;1747419;82;21540;-64
2022/10/04 04:43:00;;;;;;;0.70;0.70;;;;;;;;;;1742725;82;21023;-63
2022/10/04 04:45:28;;;;;;;0.90;0.90;;;;;;;;;;1749372;81;22005;-64
2022/10/04 04:48:00;;;;;;;0.70;0.70;;;;;;;;;;1747925;81;21298;-65
2022/10/04 04:50:24;;;;;;;0.90;0.80;;;;;;;;;;1747275;80;21132;-65
2022/10/04 04:52:51;;;;;;;0.90;0.90;;;;;;;;;;1718774;82;21033;-65
2022/10/04 04:55:18;;;;;;;0.78;0.78;;;;;;;;;;1743550;82;21028;-65
2022/10/04 04:57:46;;;;;;;0.70;0.70;;;;;;;;;;1744666;82;21616;-66
2022/10/04 05:00:19;;;;;;;0.90;0.90;;;;;;;;;;1752115;81;21013;-65
2022/10/04 05:02:54;;;;;;;0.80;0.80;;;;;;;;;;1750193;80;20977;-65
2022/10/04 05:05:22;;;;;;;0.88;0.88;;;;;;;;;;1749278;82;20984;-65
2022/10/04 05:07:49;;;;;;;1.30;0.93;;;;;;;;;;1746863;82;21032;-65
2022/10/04 05:10:30;;;;;;;0.95;0.95;;;;;;;;;;1743430;82;20981;-65
2022/10/04 05:12:58;;;;;;;0.72;0.72;;;;;;;;;;1748553;80;21492;-65
2022/10/04 05:15:25;;;;;;;2.17;1.30;;;;;;;;;;1749977;82;21040;-65
2022/10/04 05:17:51;;;;;;;1.67;1.52;;;;;;;;;;1744982;81;21084;-64
2022/10/04 05:20:18;;;;;;;3.72;1.20;;;;;;;;;;1745421;82;21013;-64
2022/10/04 05:22:46;;;;;;;1.32;1.22;;;;;;;;;;1747440;81;21043;-64
2022/10/04 05:25:14;;;;;;;0.88;0.80;;;;;;;;;;1743887;81;21023;-65
2022/10/04 05:27:41;;;;;;;1.37;0.88;;;;;;;;;;1746826;80;21091;-64
2022/10/04 05:30:12;;;;;;;1.67;1.55;;;;;;;;;;1749775;80;21033;-65
2022/10/04 05:32:43;;;;;;;1.10;1.00;;;;;;;;;;1754550;80;21028;-65
2022/10/04 05:35:14;;;;;;;1.35;1.25;;;;;;;;;;1751351;81;21044;-64
2022/10/04 05:37:59;;;;;;;1.45;1.20;;;;;;;;;;1755733;81;21100;-65
2022/10/04 05:40:27;;;;;;;1.12;1.10;;;;;;;;;;1745861;81;21067;-65
2022/10/04 05:42:56;;;;;;;1.37;1.02;;;;;;;;;;1756347;80;21486;-65
2022/10/04 05:45:23;;;;;;;1.45;0.98;;;;;;;;;;1757547;80;20999;-65
2022/10/04 05:47:50;;;;;;;1.20;1.20;;;;;;;;;;1753893;81;21086;-65
2022/10/04 05:50:18;;;;;;;1.92;1.40;;;;;;;;;;1752169;81;21082;-65
2022/10/04 05:52:45;;;;;;;1.95;1.27;;;;;;;;;;1753983;80;21579;-65
2022/10/04 05:55:14;;;;;;;2.10;1.77;;;;;;;;;;1753451;81;20991;-65
2022/10/04 05:57:43;;;;;;;3.45;2.08;;;;;;;;;;1744183;81;21016;-64
2022/10/04 06:00:11;;;;;;;5.97;2.75;;;;;;;;;;1750113;80;21074;-65
2022/10/04 06:02:42;;;;;;;6.37;2.20;;;;;;;;;;1752250;81;21040;-65
2022/10/04 06:05:11;;;;;;;3.15;2.12;;;;;;;;;;1751364;82;21060;-65
2022/10/04 06:07:39;;;;;;;2.17;1.72;;;;;;;;;;1745821;80;21157;-65
2022/10/04 06:10:09;;;;;;;1.87;1.52;;;;;;;;;;1753999;81;21052;-65
2022/10/04 06:12:54;;;;;;;3.42;2.15;;;;;;;;;;1751893;80;21011;-64
2022/10/04 06:15:40;;;;;;;6.47;2.95;;;;;;;;;;1753546;80;21080;-65
2022/10/04 06:18:09;;;;;;;8.48;4.25;;;;;;;;;;1752492;80;21051;-63
2022/10/04 06:20:43;;;;;;;5.75;3.12;;;;;;;;;;1754448;81;21021;-65
2022/10/04 06:23:15;;;;;;;7.47;5.03;;;;;;;;;;1756062;81;21024;-65
2022/10/04 06:25:43;;;;;;;4.75;3.00;;;;;;;;;;1752536;81;21044;-65
2022/10/04 06:28:14;;;;;;;6.47;5.67;;;;;;;;;;1751611;80;21041;-66
2022/10/04 06:30:43;;;;;;;4.70;3.80;;;;;;;;;;1737800;82;21084;-64
2022/10/04 06:33:14;;;;;;;3.05;2.42;;;;;;;;;;1729278;82;21066;-66
2022/10/04 06:35:48;;;;;;;3.20;1.95;;;;;;;;;;1737300;82;20981;-65
2022/10/04 06:38:19;;;;;;;2.37;1.70;;;;;;;;;;1743228;81;21517;-66
2022/10/04 06:41:11;;;;;;;3.92;1.60;;;;;;;;;;1643795;85;21735;-64
2022/10/04 06:43:58;;;;;;;2.77;1.92;;;;;;;;;;1682013;84;21055;-66
2022/10/04 06:46:29;;;;;;;3.17;1.90;;;;;;;;;;1677827;84;21033;-64
2022/10/04 06:49:03;;;;;;;3.30;1.72;;;;;;;;;;1649983;86;21500;-65
2022/10/04 06:51:34;;;;;;;2.17;1.60;;;;;;;;;;1659210;84;21126;-65
2022/10/04 06:54:02;;;;;;;2.72;1.72;;;;;;;;;;1723057;82;21059;-64
2022/10/04 06:56:33;;;;;;;2.22;1.62;;;;;;;;;;1727410;82;21098;-65
2022/10/04 06:59:07;;;;;;;2.42;1.60;;;;;;;;;;1716715;82;21031;-65
2022/10/04 07:01:34;;;;;;;3.33;1.80;;;;;;;;;;1684050;84;21076;-64
2022/10/04 07:04:18;;;;;;;3.40;1.85;;;;;;;;;;1723287;83;21051;-64
2022/10/04 07:06:52;;;;;;;4.13;1.97;;;;;;;;;;1720738;82;21062;-65
2022/10/04 07:09:20;;;;;;;2.37;1.60;;;;;;;;;;1722951;82;21055;-64
2022/10/04 07:11:48;;;;;;;3.20;1.77;;;;;;;;;;1722307;82;21114;-64
2022/10/04 07:14:19;;;;;;;2.20;1.75;;;;;;;;;;1722810;83;21048;-64
2022/10/04 07:16:59;;;;;;;2.62;1.90;;;;;;;;;;1719754;82;21047;-64
2022/10/04 07:19:27;;;;;;;3.60;2.20;;;;;;;;;;1718439;82;21093;-64
2022/10/04 07:22:03;;;;;;;3.75;2.62;;;;;;;;;;1721252;83;21088;-64
2022/10/04 07:24:31;;;;;;;3.90;2.67;;;;;;;;;;1719975;82;21042;-64
2022/10/04 07:26:57;;;;;;;8.03;3.10;;;;;;;;;;1665856;82;21535;-64
2022/10/04 07:29:27;;;;;;;3.40;2.20;;;;;;;;;;1719107;82;21058;-63
2022/10/04 07:32:07;;;;;;;4.28;2.15;;;;;;;;;;1713495;82;21132;-63
2022/10/04 07:34:35;;;;;;;2.40;1.72;;;;;;;;;;1720981;82;21527;-62
2022/10/04 07:37:09;;;;;;;3.27;2.08;;;;;;;;;;1719426;82;21538;-63
2022/10/04 07:39:46;;;;;;;2.33;2.00;;;;;;;;;;1707925;82;21035;-64
2022/10/04 07:42:14;;;;;;;2.80;1.95;;;;;;;;;;1703327;83;22372;-64
2022/10/04 07:44:41;;;;;;;5.87;3.10;;;;;;;;;;1706431;83;21095;-64
2022/10/04 07:47:25;;;;;;;4.92;3.12;;;;;;;;;;1705518;83;20981;-64
2022/10/04 07:49:52;;;;;;;3.47;2.30;;;;;;;;;;1705774;83;21051;-63
2022/10/04 07:52:26;;;;;;;3.98;1.80;;;;;;;;;;1699226;83;21079;-64
2022/10/04 07:54:57;;;;;;;4.03;2.15;;;;;;;;;;1701976;83;21575;-64
2022/10/04 07:57:25;;;;;;;2.67;1.80;;;;;;;;;;1707349;83;21064;-65
2022/10/04 08:00:04;;;;;;;2.90;2.05;;;;;;;;;;1699794;83;21016;-64
2022/10/04 08:02:50;;;;;;;2.33;1.70;;;;;;;;;;1705180;83;21040;-63
2022/10/04 08:05:21;;;;;;;2.98;1.90;;;;;;;;;;1664731;85;21044;-64
2022/10/04 08:07:59;;;;;;;2.45;1.75;;;;;;;;;;1663605;85;21071;-64
2022/10/04 08:10:27;;;;;;;1.70;1.60;;;;;;;;;;1668638;85;21072;-63
2022/10/04 08:12:57;;;;;;;1.85;1.67;;;;;;;;;;1637358;86;21075;-62
2022/10/04 08:15:37;;;;;;;2.42;1.80;;;;;;;;;;1664057;85;21046;-63
2022/10/04 08:18:17;;;;;;;2.42;2.00;;;;;;;;;;1636389;86;21092;-64
2022/10/04 08:20:57;;;;;;;3.47;2.62;;;;;;;;;;1645849;86;21078;-64
2022/10/04 08:23:25;;;;;;;4.75;1.90;;;;;;;;;;1648859;86;21009;-64
2022/10/04 08:25:59;;;;;;;2.98;1.90;;;;;;;;;;1651814;86;21184;-63
2022/10/04 08:31:33;;;;;;;1.98;1.77;;;;;;;;;;1655679;85;21562;-64
2022/10/04 08:34:05;;;;;;;2.47;2.10;;;;;;;;;;1657710;85;21084;-63
2022/10/04 08:36:50;;;;;;;3.02;2.00;;;;;;;;;;1660725;85;21032;-64
2022/10/04 08:39:18;;;;;;;2.70;2.02;;;;;;;;;;1637651;86;21036;-65
2022/10/04 08:41:46;;;;;;;3.90;2.42;;;;;;;;;;1671853;85;21068;-63
2022/10/04 08:44:32;;;;;;;4.00;2.12;;;;;;;;;;1672271;85;21085;-64
2022/10/04 08:47:15;;;;;;;3.27;2.08;;;;;;;;;;1669509;85;21095;-64
2022/10/04 08:50:00;;;;;;;3.22;2.10;;;;;;;;;;1639488;86;21045;-64
2022/10/04 08:52:47;;;;;;;3.45;2.17;;;;;;;;;;1665730;85;21554;-63
2022/10/04 08:55:25;;;;;;;3.98;2.00;;;;;;;;;;1642219;86;21050;-63
2022/10/04 08:57:47;;;;;;;;;;;;;;;;;;1642039;86;21532;-63
2022/10/04 09:00:32;;;;;;;6.92;4.37;;;;;;;;;;1639588;86;20137;-64
2022/10/04 09:03:15;;;;;;;3.87;2.60;;;;;;;;;;1668096;85;21069;-64
2022/10/04 09:05:46;;;;;;;8.23;4.55;;;;;;;;;;1670022;85;21634;-64
2022/10/04 09:08:27;;;;;;;8.15;4.00;;;;;;;;;;1666957;85;21087;-63
2022/10/04 09:11:00;;;;;;;6.62;3.02;;;;;;;;;;1644910;86;21400;-64
2022/10/04 09:13:31;;;;;;;5.00;3.00;;;;;;;;;;1641063;86;21541;-63
2022/10/04 09:16:11;;;;;;;8.40;3.15;;;;;;;;;;1668673;85;21092;-63
2022/10/04 09:18:50;;;;;;;5.92;2.42;;;;;;;;;;1602679;86;21572;-63
2022/10/04 09:21:24;;;;;;;3.45;2.20;;;;;;;;;;1674219;85;21045;-63
2022/10/04 09:23:54;;;;;;;3.80;2.10;;;;;;;;;;1646490;85;21087;-63
2022/10/04 09:26:21;;;;;;;4.10;2.00;;;;;;;;;;1650534;85;21095;-64
2022/10/04 09:29:06;;;;;;;4.35;2.30;;;;;;;;;;1682406;85;20992;-63
2022/10/04 09:31:34;;;;;;;3.08;2.17;;;;;;;;;;1677311;85;21029;-63
2022/10/04 09:34:21;;;;;;;3.35;2.30;;;;;;;;;;1680431;85;21158;-64
2022/10/04 09:36:57;;;;;;;5.08;2.58;;;;;;;;;;1651352;85;21111;-65
2022/10/04 09:39:39;;;;;;;3.17;1.95;;;;;;;;;;1670321;85;21064;-65
2022/10/04 09:42:20;;;;;;;3.33;2.37;;;;;;;;;;1671895;84;21036;-66
2022/10/04 09:45:07;;;;;;;2.92;2.00;;;;;;;;;;1646511;86;21057;-64
2022/10/04 09:47:50;;;;;;;3.25;2.15;;;;;;;;;;1669303;84;21048;-66
2022/10/04 09:50:36;;;;;;;6.63;2.57;;;;;;;;;;1669733;84;21071;-67
2022/10/04 09:53:16;;;;;;;3.58;2.30;;;;;;;;;;1681659;84;21771;-64
2022/10/04 09:55:44;;;;;;;3.50;2.27;;;;;;;;;;1672794;84;22130;-65
2022/10/04 09:58:12;;;;;;;3.75;2.30;;;;;;;;;;1677522;84;21642;-64
2022/10/04 10:00:40;;;;;;;5.08;2.60;;;;;;;;;;1705015;82;21076;-65
2022/10/04 10:03:22;;;;;;;4.28;2.52;;;;;;;;;;1680254;82;21020;-67
2022/10/04 10:06:02;;;;;;;3.80;2.63;;;;;;;;;;1706176;82;21090;-65
2022/10/04 10:08:36;;;;;;;3.33;2.40;;;;;;;;;;1663164;84;21102;-66
2022/10/04 10:14:11;;;;;;;4.70;2.67;;;;;;;;;;1722120;83;21047;-65
2022/10/04 10:16:50;;;;;;;4.28;2.30;;;;;;;;;;1719307;82;21199;-64
2022/10/04 10:19:24;;;;;;;4.22;2.10;;;;;;;;;;1721666;82;21042;-65
2022/10/04 10:21:58;;;;;;;3.98;2.45;;;;;;;;;;1724547;82;21535;-64
2022/10/04 10:24:33;;;;;;;3.12;2.27;;;;;;;;;;1716521;82;21056;-64
2022/10/04 10:27:10;;;;;;;3.47;2.40;;;;;;;;;;1718279;82;21058;-64
2022/10/04 10:29:42;;;;;;;2.70;2.10;;;;;;;;;;1718323;82;21033;-64
2022/10/04 10:32:25;;;;;;;4.55;3.25;;;;;;;;;;1720423;82;21048;-64
2022/10/04 10:35:10;;;;;;;5.22;2.65;;;;;;;;;;1719619;82;21075;-63
2022/10/04 10:37:39;;;;;;;3.35;2.22;;;;;;;;;;1717634;82;21054;-63
2022/10/04 10:40:24;;;;;;;3.80;2.30;;;;;;;;;;1693895;83;21560;-64
2022/10/04 10:42:55;;;;;;;5.00;3.00;;;;;;;;;;1701966;83;21024;-65
2022/10/04 10:45:26;;;;;;;4.28;2.70;;;;;;;;;;1697286;84;21073;-65
2022/10/04 10:47:55;;;;;;;4.30;2.72;;;;;;;;;;1703008;83;21071;-65
2022/10/04 10:50:24;;;;;;;3.22;2.05;;;;;;;;;;1663453;85;21162;-66
2022/10/04 10:52:53;;;;;;;3.12;2.50;;;;;;;;;;1663630;85;21095;-65
2022/10/04 10:55:25;;;;;;;4.15;2.83;;;;;;;;;;1658651;85;21052;-66
2022/10/04 10:57:54;;;;;;;3.40;2.55;;;;;;;;;;1627889;86;21045;-65
2022/10/04 11:00:20;;;;;;;2.90;2.17;;;;;;;;;;1652574;86;21034;-65
2022/10/04 11:03:05;;;;;;;4.05;2.70;;;;;;;;;;1662435;85;21107;-64
2022/10/04 11:05:52;;;;;;;3.22;2.30;;;;;;;;;;1662705;85;21085;-65
2022/10/04 11:08:32;;;;;;;3.62;2.40;;;;;;;;;;1657275;85;21254;-64
2022/10/04 11:11:03;;;;;;;5.10;2.35;;;;;;;;;;1658847;86;21586;-64
2022/10/04 11:13:37;;;;;;;3.75;2.35;;;;;;;;;;1657411;85;21056;-64
2022/10/04 11:16:20;;;;;;;3.20;2.50;;;;;;;;;;1654528;86;21056;-65
2022/10/04 11:18:50;;;;;;;4.15;2.70;;;;;;;;;;1653741;86;21023;-65
2022/10/04 11:21:20;;;;;;;5.30;2.80;;;;;;;;;;1665916;85;21045;-65
2022/10/04 11:23:50;;;;;;;4.90;2.60;;;;;;;;;;1663224;85;21063;-65
2022/10/04 11:26:35;;;;;;;5.17;2.90;;;;;;;;;;1658205;85;21052;-65
2022/10/04 11:29:19;;;;;;;4.90;3.08;;;;;;;;;;1663480;85;21063;-66
2022/10/04 11:31:56;;;;;;;5.40;2.52;;;;;;;;;;1655572;85;21142;-65
2022/10/04 11:34:24;;;;;;;3.90;2.72;;;;;;;;;;1655250;86;21559;-65
2022/10/04 11:36:52;;;;;;;3.80;2.58;;;;;;;;;;1635071;86;21100;-63
2022/10/04 11:39:30;;;;;;;5.42;3.83;;;;;;;;;;1661589;85;21087;-65
2022/10/04 11:41:58;;;;;;;4.87;3.15;;;;;;;;;;1679827;84;21063;-64
2022/10/04 11:44:28;;;;;;;7.08;4.17;;;;;;;;;;1721593;83;21059;-66
2022/10/04 11:47:05;;;;;;;7.10;3.85;;;;;;;;;;1720855;83;21122;-65
2022/10/04 11:49:34;;;;;;;4.75;3.22;;;;;;;;;;1712916;81;21567;-64
2022/10/04 11:52:05;;;;;;;5.55;3.15;;;;;;;;;;1680598;84;21067;-64
2022/10/04 11:54:48;;;;;;;5.37;3.25;;;;;;;;;;1718312;82;21039;-66
2022/10/04 11:57:36;;;;;;;6.35;3.12;;;;;;;;;;1716719;82;21071;-66
2022/10/04 12:00:03;;;;;;;5.65;3.20;;;;;;;;;;1719512;82;21091;-65
2022/10/04 12:02:50;;;;;;;4.58;2.80;;;;;;;;;;1721072;83;20992;-65
2022/10/04 12:05:18;;;;;;;5.22;3.20;;;;;;;;;;1716019;82;21039;-65
2022/10/04 12:07:49;;;;;;;4.65;2.80;;;;;;;;;;1677616;85;21091;-65
2022/10/04 12:10:24;;;;;;;4.50;3.02;;;;;;;;;;1679816;84;21539;-64
2022/10/04 12:12:58;;;;;;;6.37;3.05;;;;;;;;;;1678337;84;21068;-65
2022/10/04 12:15:41;;;;;;;4.75;2.70;;;;;;;;;;1679512;84;21119;-64
2022/10/04 12:18:27;;;;;;;3.40;2.15;;;;;;;;;;1708848;82;21044;-65
2022/10/04 12:21:04;;;;;;;4.05;2.35;;;;;;;;;;1712153;82;21094;-65
2022/10/04 12:23:44;;;;;;;3.62;2.30;;;;;;;;;;1709100;83;21067;-64
2022/10/04 12:26:15;;;;;;;3.47;2.42;;;;;;;;;;1724678;82;21047;-64
2022/10/04 12:28:52;;;;;;;3.55;2.33;;;;;;;;;;1683991;84;21083;-65
2022/10/04 12:31:31;;;;;;;3.77;2.45;;;;;;;;;;1710684;82;21052;-66
2022/10/04 12:34:01;;;;;;;4.45;2.70;;;;;;;;;;1707218;83;21023;-66
2022/10/04 12:36:39;;;;;;;3.45;2.60;;;;;;;;;;1712185;82;22103;-66
2022/10/04 12:39:07;;;;;;;3.47;2.30;;;;;;;;;;1714277;82;21103;-66
2022/10/04 12:41:38;;;;;;;3.52;2.45;;;;;;;;;;1709235;82;21044;-66
2022/10/04 12:44:18;;;;;;;2.92;2.33;;;;;;;;;;1677387;84;21037;-65
2022/10/04 12:47:03;;;;;;;3.85;2.92;;;;;;;;;;1710748;82;21554;-66
2022/10/04 12:49:31;;;;;;;5.15;2.40;;;;;;;;;;1667342;85;21060;-65
2022/10/04 12:52:00;;;;;;;4.60;2.95;;;;;;;;;;1721002;82;21051;-65
2022/10/04 12:54:37;;;;;;;4.35;2.80;;;;;;;;;;1717456;82;21094;-64
2022/10/04 12:57:22;;;;;;;5.12;3.10;;;;;;;;;;1717651;82;21006;-65
2022/10/04 13:00:05;;;;;;;4.00;2.55;;;;;;;;;;1712650;82;21047;-65
2022/10/04 13:02:36;;;;;;;4.08;2.72;;;;;;;;;;1652757;85;21602;-65
2022/10/04 13:05:08;;;;;;;5.00;2.50;;;;;;;;;;1697920;82;21023;-66
2022/10/04 13:07:42;;;;;;;3.22;2.40;;;;;;;;;;1723055;82;21095;-66
2022/10/04 13:10:19;;;;;;;4.50;2.70;;;;;;;;;;1715074;82;21583;-66
2022/10/04 13:13:09;;;;;;;3.52;2.47;;;;;;;;;;1722888;82;21032;-65
2022/10/04 13:15:41;;;;;;;3.35;2.60;;;;;;;;;;1717633;82;21080;-68
2022/10/04 13:18:26;;;;;;;4.42;2.60;;;;;;;;;;1714632;82;21051;-65
2022/10/04 13:20:54;;;;;;;4.53;2.65;;;;;;;;;;1721140;82;21059;-65
2022/10/04 13:23:28;;;;;;;3.25;2.33;;;;;;;;;;1721103;82;21083;-65
2022/10/04 13:25:56;;;;;;;5.15;2.40;;;;;;;;;;1723302;82;21082;-64
2022/10/04 13:28:24;;;;;;;3.30;2.35;;;;;;;;;;1725020;82;21094;-64
2022/10/04 13:30:59;;;;;;;3.83;3.00;;;;;;;;;;1674340;84;22301;-64
2022/10/04 13:33:33;;;;;;;4.17;2.72;;;;;;;;;;1672517;84;21134;-65
2022/10/04 13:36:15;;;;;;;4.53;2.47;;;;;;;;;;1705252;82;22281;-65
2022/10/04 13:39:02;;;;;;;3.37;2.55;;;;;;;;;;1704500;82;21095;-65
2022/10/04 13:41:33;;;;;;;3.75;2.10;;;;;;;;;;1705576;82;22118;-65
2022/10/04 13:44:13;;;;;;;2.85;2.00;;;;;;;;;;1717321;82;21055;-66
2022/10/04 13:46:43;;;;;;;2.10;1.87;;;;;;;;;;1722930;82;21149;-64
2022/10/04 13:49:15;;;;;;;4.10;2.50;;;;;;;;;;1712550;81;21115;-66
2022/10/04 13:57:53;;;;;;;2.67;1.92;;;;;;;;;;1719969;82;21055;-64
2022/10/04 14:00:22;;;;;;;3.10;2.00;;;;;;;;;;1723960;82;21039;-65
2022/10/04 14:02:50;;;;;;;2.67;1.85;;;;;;;;;;1724908;82;21066;-65
2022/10/04 14:05:36;;;;;;;2.70;2.00;;;;;;;;;;1715504;82;21012;-67
2022/10/04 14:08:11;;;;;;;2.83;2.00;;;;;;;;;;1706422;83;21090;-66
2022/10/04 14:10:48;;;;;;;2.90;2.05;;;;;;;;;;1704467;83;21016;-65
2022/10/04 14:13:32;;;;;;;3.62;2.20;;;;;;;;;;1719559;83;21034;-66
2022/10/04 14:16:03;;;;;;;2.75;1.90;;;;;;;;;;1726703;82;21907;-65
2022/10/04 14:18:48;;;;;;;4.22;2.30;;;;;;;;;;1718288;82;21066;-65
2022/10/04 14:21:19;;;;;;;4.25;2.35;;;;;;;;;;1728657;82;21019;-65
2022/10/04 14:23:50;;;;;;;5.97;2.95;;;;;;;;;;1725843;82;21003;-66
2022/10/04 14:26:17;;;;;;;3.98;2.60;;;;;;;;;;1715178;82;21593;-65
2022/10/04 14:28:45;;;;;;;3.90;2.33;;;;;;;;;;1708665;82;21046;-65
2022/10/04 14:31:21;;;;;;;3.83;2.37;;;;;;;;;;1725422;82;21032;-65
2022/10/04 14:34:05;;;;;;;3.60;2.20;;;;;;;;;;1715080;83;21094;-69
2022/10/04 14:36:39;;;;;;;3.90;2.40;;;;;;;;;;1720384;83;21022;-67
2022/10/04 14:39:25;;;;;;;3.87;2.30;;;;;;;;;;1698591;82;21553;-67
2022/10/04 14:41:59;;;;;;;7.28;2.55;;;;;;;;;;1712621;82;21558;-67
2022/10/04 14:45:18;;;;;;;4.25;2.92;;;;;;;;;;1791693;79;22698;-66
2022/10/04 14:48:02;;;;;;;5.17;2.52;;;;;;;;;;1772162;80;21020;-67
2022/10/04 14:50:31;;;;;;;4.85;2.60;;;;;;;;;;1777329;80;21128;-68
2022/10/04 14:53:10;;;;;;;5.20;2.83;;;;;;;;;;1765747;80;21000;-67
2022/10/04 14:55:50;;;;;;;4.17;2.83;;;;;;;;;;1773675;80;21599;-68
2022/10/04 14:58:26;;;;;;;5.12;2.60;;;;;;;;;;1771040;80;21057;-68
2022/10/04 15:01:03;;;;;;;4.65;2.90;;;;;;;;;;1770632;80;21057;-67
2022/10/04 15:03:50;;;;;;;4.17;2.50;;;;;;;;;;1762866;80;21088;-69
2022/10/04 15:06:21;;;;;;;5.83;2.45;;;;;;;;;;1769686;80;21052;-66
2022/10/04 15:09:07;;;;;;;3.57;2.40;;;;;;;;;;1764047;80;21059;-67
2022/10/04 15:11:35;;;;;;;3.98;2.22;;;;;;;;;;1769605;80;20989;-68
2022/10/04 15:14:07;;;;;;;3.30;2.25;;;;;;;;;;1772445;80;21410;-68
2022/10/04 15:16:41;;;;;;;3.45;2.00;;;;;;;;;;1767736;80;21096;-69
2022/10/04 15:19:21;;;;;;;2.95;2.40;;;;;;;;;;1769316;80;21068;-68
2022/10/04 15:22:06;;;;;;;3.02;2.25;;;;;;;;;;1770228;80;21068;-69
2022/10/04 15:24:41;;;;;;;5.08;2.40;;;;;;;;;;1761461;79;20993;-66
2022/10/04 15:27:15;;;;;;;3.47;2.60;;;;;;;;;;1762703;79;22030;-67
2022/10/04 15:29:43;;;;;;;4.28;2.50;;;;;;;;;;1765813;79;21154;-68
2022/10/04 15:32:23;;;;;;;7.42;4.08;;;;;;;;;;1763962;79;21024;-68
2022/10/04 15:35:06;;;;;;;4.72;2.85;;;;;;;;;;1761407;79;20993;-67